sensor_id;sensor_type;location;lat;lon;timestamp;pressure;altitude;pressure_sealevel;temperature;humidity
52927;BME280;40783;49.710;8.842;2022-08-19T00:02:21;98692.63;;;18.09;100.00
52927;BME280;40783;49.710;8.842;2022-08-19T00:04:48;98703.03;;;18.12;100.00
52927;BME280;40783;49.710;8.842;2022-08-19T00:07:19;98697.63;;;18.12;100.00
52927;BME280;40783;49.710;8.842;2022-08-19T00:09:47;98698.06;;;18.09;100.00
52927;BME280;40783;49.710;8.842;2022-08-19T00:12:12;98694.31;;;18.10;100.00
52927;BME280;40783;49.710;8.842;2022-08-19T00:14:38;98687.22;;;18.09;100.00
52927;BME280;40783;49.710;8.842;2022-08-19T00:17:04;98673.69;;;18.09;100.00
52927;BME280;40783;49.710;8.842;2022-08-19T00:19:31;98654.75;;;18.09;100.00
52927;BME280;40783;49.710;8.842;2022-08-19T00:21:58;98651.44;;;18.07;100.00
52927;BME280;40783;49.710;8.842;2022-08-19T00:24:24;98651.44;;;18.07;100.00
52927;BME280;40783;49.710;8.842;2022-08-19T00:26:50;98635.44;;;18.05;100.00
52927;BME280;40783;49.710;8.842;2022-08-19T00:29:17;98635.22;;;18.07;100.00
52927;BME280;40783;49.710;8.842;2022-08-19T00:31:43;98630.25;;;18.04;100.00
52927;BME280;40783;49.710;8.842;2022-08-19T00:34:12;98627.34;;;17.99;100.00
52927;BME280;40783;49.710;8.842;2022-08-19T00:36:37;98628.59;;;17.96;100.00
52927;BME280;40783;49.710;8.842;2022-08-19T00:39:05;98625.09;;;17.95;100.00
52927;BME280;40783;49.710;8.842;2022-08-19T00:41:30;98628.41;;;17.98;100.00
52927;BME280;40783;49.710;8.842;2022-08-19T00:44:03;98626.94;;;18.02;100.00
52927;BME280;40783;49.710;8.842;2022-08-19T00:46:29;98628.16;;;18.06;100.00
52927;BME280;40783;49.710;8.842;2022-08-19T00:48:55;98629.81;;;18.07;100.00
52927;BME280;40783;49.710;8.842;2022-08-19T00:51:21;98627.78;;;18.02;100.00
52927;BME280;40783;49.710;8.842;2022-08-19T00:53:52;98626.53;;;17.98;100.00
52927;BME280;40783;49.710;8.842;2022-08-19T00:56:17;98627.34;;;17.99;100.00
52927;BME280;40783;49.710;8.842;2022-08-19T00:58:45;98638.19;;;17.99;100.00
52927;BME280;40783;49.710;8.842;2022-08-19T01:01:10;98641.53;;;18.01;100.00
52927;BME280;40783;49.710;8.842;2022-08-19T01:03:41;98626.94;;;18.02;100.00
52927;BME280;40783;49.710;8.842;2022-08-19T01:06:06;98623.16;;;18.03;100.00
52927;BME280;40783;49.710;8.842;2022-08-19T01:08:32;98621.91;;;18.05;100.00
52927;BME280;40783;49.710;8.842;2022-08-19T01:10:57;98632.69;;;18.12;100.00
52927;BME280;40783;49.710;8.842;2022-08-19T01:13:25;98643.06;;;18.15;100.00
52927;BME280;40783;49.710;8.842;2022-08-19T01:16:01;98633.25;;;18.21;100.00
52927;BME280;40783;49.710;8.842;2022-08-19T01:18:27;98633.63;;;18.24;100.00
52927;BME280;40783;49.710;8.842;2022-08-19T01:20:56;98621.06;;;18.30;100.00
52927;BME280;40783;49.710;8.842;2022-08-19T01:23:27;98614.59;;;18.31;100.00
52927;BME280;40783;49.710;8.842;2022-08-19T01:26:08;98610.84;;;18.32;100.00
52927;BME280;40783;49.710;8.842;2022-08-19T01:28:35;98616.25;;;18.32;100.00
52927;BME280;40783;49.710;8.842;2022-08-19T01:31:00;98630.03;;;18.31;100.00
52927;BME280;40783;49.710;8.842;2022-08-19T01:33:26;98638.16;;;18.31;100.00
52927;BME280;40783;49.710;8.842;2022-08-19T01:35:51;98641.22;;;18.34;100.00
52927;BME280;40783;49.710;8.842;2022-08-19T01:38:20;98640.41;;;18.34;100.00
52927;BME280;40783;49.710;8.842;2022-08-19T01:40:46;98628.72;;;18.40;100.00
52927;BME280;40783;49.710;8.842;2022-08-19T01:43:11;98630.38;;;18.41;100.00
52927;BME280;40783;49.710;8.842;2022-08-19T01:45:37;98633.28;;;18.39;100.00
52927;BME280;40783;49.710;8.842;2022-08-19T01:48:05;98639.53;;;18.40;100.00
52927;BME280;40783;49.710;8.842;2022-08-19T01:50:31;98648.72;;;18.39;100.00
52927;BME280;40783;49.710;8.842;2022-08-19T01:52:57;98650.81;;;18.37;100.00
52927;BME280;40783;49.710;8.842;2022-08-19T01:55:24;98659.97;;;18.36;100.00
52927;BME280;40783;49.710;8.842;2022-08-19T01:57:54;98652.91;;;18.35;100.00
52927;BME280;40783;49.710;8.842;2022-08-19T02:00:23;98665.38;;;18.36;100.00
52927;BME280;40783;49.710;8.842;2022-08-19T02:02:49;98657.88;;;18.38;100.00
52927;BME280;40783;49.710;8.842;2022-08-19T02:05:17;98649.75;;;18.38;100.00
52927;BME280;40783;49.710;8.842;2022-08-19T02:07:46;98653.72;;;18.35;100.00
52927;BME280;40783;49.710;8.842;2022-08-19T02:10:15;98658.31;;;18.35;100.00
52927;BME280;40783;49.710;8.842;2022-08-19T02:12:42;98659.38;;;18.34;100.00
52927;BME280;40783;49.710;8.842;2022-08-19T02:15:09;98663.13;;;18.33;100.00
52927;BME280;40783;49.710;8.842;2022-08-19T02:17:37;98669.16;;;18.35;100.00
52927;BME280;40783;49.710;8.842;2022-08-19T02:20:03;98665.84;;;18.33;100.00
52927;BME280;40783;49.710;8.842;2022-08-19T02:22:28;98664.78;;;18.34;100.00
52927;BME280;40783;49.710;8.842;2022-08-19T02:24:56;98659.38;;;18.34;100.00
52927;BME280;40783;49.710;8.842;2022-08-19T02:27:24;98653.97;;;18.34;100.00
52927;BME280;40783;49.710;8.842;2022-08-19T02:29:50;98653.50;;;18.37;100.00
52927;BME280;40783;49.710;8.842;2022-08-19T02:32:18;98649.16;;;18.36;100.00
52927;BME280;40783;49.710;8.842;2022-08-19T02:34:45;98646.28;;;18.31;100.00
52927;BME280;40783;49.710;8.842;2022-08-19T02:37:10;98644.63;;;18.30;100.00
52927;BME280;40783;49.710;8.842;2022-08-19T02:39:55;98639.66;;;18.27;100.00
52927;BME280;40783;49.710;8.842;2022-08-19T02:42:21;98659.19;;;18.29;100.00
52927;BME280;40783;49.710;8.842;2022-08-19T02:44:48;98650.03;;;18.30;100.00
52927;BME280;40783;49.710;8.842;2022-08-19T02:47:14;98658.75;;;18.32;100.00
52927;BME280;40783;49.710;8.842;2022-08-19T02:49:42;98649.59;;;18.33;100.00
52927;BME280;40783;49.710;8.842;2022-08-19T02:52:07;98644.19;;;18.33;100.00
52927;BME280;40783;49.710;8.842;2022-08-19T02:54:36;98651.00;;;18.35;100.00
52927;BME280;40783;49.710;8.842;2022-08-19T02:57:02;98648.53;;;18.34;100.00
52927;BME280;40783;49.710;8.842;2022-08-19T02:59:30;98648.75;;;18.32;100.00
52927;BME280;40783;49.710;8.842;2022-08-19T03:01:58;98643.56;;;18.31;100.00
52927;BME280;40783;49.710;8.842;2022-08-19T03:04:26;98644.19;;;18.33;100.00
52927;BME280;40783;49.710;8.842;2022-08-19T03:06:51;98652.91;;;18.35;100.00
52927;BME280;40783;49.710;8.842;2022-08-19T03:09:19;98654.56;;;18.36;100.00
52927;BME280;40783;49.710;8.842;2022-08-19T03:11:45;98658.31;;;18.35;100.00
52927;BME280;40783;49.710;8.842;2022-08-19T03:14:10;98649.16;;;18.36;100.00
52927;BME280;40783;49.710;8.842;2022-08-19T03:16:41;98653.50;;;18.37;100.00
52927;BME280;40783;49.710;8.842;2022-08-19T03:19:09;98642.09;;;18.35;100.00
52927;BME280;40783;49.710;8.842;2022-08-19T03:21:35;98639.56;;;18.33;100.00
52927;BME280;40783;49.710;8.842;2022-08-19T03:24:02;98643.56;;;18.31;100.00
52927;BME280;40783;49.710;8.842;2022-08-19T03:26:31;98639.03;;;18.24;100.00
52927;BME280;40783;49.710;8.842;2022-08-19T03:29:00;98637.22;;;18.18;100.00
52927;BME280;40783;49.710;8.842;2022-08-19T03:31:28;98643.50;;;18.12;100.00
52927;BME280;40783;49.710;8.842;2022-08-19T03:33:53;98638.34;;;18.04;100.00
52927;BME280;40783;49.710;8.842;2022-08-19T03:36:20;98642.38;;;17.94;100.00
52927;BME280;40783;49.710;8.842;2022-08-19T03:38:47;98638.22;;;17.92;100.00
52927;BME280;40783;49.710;8.842;2022-08-19T03:41:15;98647.16;;;17.92;100.00
52927;BME280;40783;49.710;8.842;2022-08-19T03:43:40;98651.97;;;17.90;100.00
52927;BME280;40783;49.710;8.842;2022-08-19T03:46:07;98646.38;;;17.85;100.00
52927;BME280;40783;49.710;8.842;2022-08-19T03:48:36;98659.13;;;17.78;100.00
52927;BME280;40783;49.710;8.842;2022-08-19T03:51:02;98656.22;;;17.73;100.00
52927;BME280;40783;49.710;8.842;2022-08-19T03:53:28;98672.88;;;17.70;100.00
52927;BME280;40783;49.710;8.842;2022-08-19T03:55:54;98675.41;;;17.64;100.00
52927;BME280;40783;49.710;8.842;2022-08-19T03:58:20;98678.78;;;17.60;100.00
52927;BME280;40783;49.710;8.842;2022-08-19T04:00:48;98679.59;;;17.60;100.00
52927;BME280;40783;49.710;8.842;2022-08-19T04:03:13;98677.91;;;17.66;100.00
52927;BME280;40783;49.710;8.842;2022-08-19T04:05:41;98680.38;;;17.68;100.00
52927;BME280;40783;49.710;8.842;2022-08-19T04:08:06;98678.34;;;17.63;100.00
52927;BME280;40783;49.710;8.842;2022-08-19T04:10:40;98682.91;;;17.62;100.00
52927;BME280;40783;49.710;8.842;2022-08-19T04:13:07;98669.19;;;17.64;100.00
52927;BME280;40783;49.710;8.842;2022-08-19T04:15:38;98668.75;;;17.67;100.00
52927;BME280;40783;49.710;8.842;2022-08-19T04:18:06;98656.66;;;17.70;100.00
52927;BME280;40783;49.710;8.842;2022-08-19T04:20:45;98661.03;;;17.71;100.00
52927;BME280;40783;49.710;8.842;2022-08-19T04:23:11;98674.97;;;17.68;100.00
52927;BME280;40783;49.710;8.842;2022-08-19T04:25:38;98681.69;;;17.58;100.00
52927;BME280;40783;49.710;8.842;2022-08-19T04:28:03;98668.41;;;17.50;100.00
52927;BME280;40783;49.710;8.842;2022-08-19T04:30:28;98671.09;;;17.50;100.00
52927;BME280;40783;49.710;8.842;2022-08-19T04:32:56;98673.38;;;17.53;100.00
52927;BME280;40783;49.710;8.842;2022-08-19T04:35:21;98670.69;;;17.53;100.00
52927;BME280;40783;49.710;8.842;2022-08-19T04:37:47;98673.38;;;17.53;100.00
52927;BME280;40783;49.710;8.842;2022-08-19T04:40:12;98668.84;;;17.47;100.00
52927;BME280;40783;49.710;8.842;2022-08-19T04:43:13;98680.88;;;17.51;100.00
52927;BME280;40783;49.710;8.842;2022-08-19T04:45:39;98682.28;;;17.60;100.00
52927;BME280;40783;49.710;8.842;2022-08-19T04:48:05;98680.00;;;17.57;100.00
52927;BME280;40783;49.710;8.842;2022-08-19T04:50:30;98679.59;;;17.60;100.00
52927;BME280;40783;49.710;8.842;2022-08-19T04:52:55;98673.75;;;17.63;100.00
52927;BME280;40783;49.710;8.842;2022-08-19T04:55:21;98668.34;;;17.63;100.00
52927;BME280;40783;49.710;8.842;2022-08-19T04:57:46;98676.69;;;17.62;100.00
52927;BME280;40783;49.710;8.842;2022-08-19T05:00:11;98671.03;;;17.63;100.00
52927;BME280;40783;49.710;8.842;2022-08-19T05:02:37;98679.16;;;17.63;100.00
52927;BME280;40783;49.710;8.842;2022-08-19T05:05:03;98679.78;;;17.65;100.00
52927;BME280;40783;49.710;8.842;2022-08-19T05:07:34;98679.34;;;17.69;100.00
52927;BME280;40783;49.710;8.842;2022-08-19T05:09:59;98670.78;;;17.72;100.00
52927;BME280;40783;49.710;8.842;2022-08-19T05:12:25;98677.00;;;17.79;100.00
52927;BME280;40783;49.710;8.842;2022-08-19T05:14:53;98674.69;;;17.83;100.00
52927;BME280;40783;49.710;8.842;2022-08-19T05:17:19;98670.28;;;17.88;100.00
52927;BME280;40783;49.710;8.842;2022-08-19T05:19:44;98676.31;;;17.90;100.00
52927;BME280;40783;49.710;8.842;2022-08-19T05:22:28;98680.63;;;17.98;100.00
52927;BME280;40783;49.710;8.842;2022-08-19T05:25:14;98681.44;;;18.05;100.00
52927;BME280;40783;49.710;8.842;2022-08-19T05:27:39;98691.78;;;18.15;100.00
52927;BME280;40783;49.710;8.842;2022-08-19T05:30:05;98690.47;;;18.24;100.00
52927;BME280;40783;49.710;8.842;2022-08-19T05:32:35;98687.47;;;18.33;100.00
52927;BME280;40783;49.710;8.842;2022-08-19T05:35:00;98686.59;;;18.39;100.00
52927;BME280;40783;49.710;8.842;2022-08-19T05:37:25;98687.81;;;18.43;100.00
52927;BME280;40783;49.710;8.842;2022-08-19T05:39:54;98686.94;;;18.49;100.00
52927;BME280;40783;49.710;8.842;2022-08-19T05:42:20;98686.03;;;18.56;100.00
52927;BME280;40783;49.710;8.842;2022-08-19T05:44:47;98701.41;;;18.62;100.00
52927;BME280;40783;49.710;8.842;2022-08-19T05:47:14;98708.63;;;18.68;100.00
52927;BME280;40783;49.710;8.842;2022-08-19T05:49:40;98700.06;;;18.71;100.00
52927;BME280;40783;49.710;8.842;2022-08-19T05:52:09;98704.59;;;18.77;100.00
52927;BME280;40783;49.710;8.842;2022-08-19T05:54:36;98705.81;;;18.81;100.00
52927;BME280;40783;49.710;8.842;2022-08-19T05:57:05;98712.00;;;18.89;100.00
52927;BME280;40783;49.710;8.842;2022-08-19T05:59:33;98715.50;;;18.96;100.00
52927;BME280;40783;49.710;8.842;2022-08-19T06:02:00;98730.88;;;19.02;100.00
52927;BME280;40783;49.710;8.842;2022-08-19T06:04:26;98732.22;;;19.11;100.00
52927;BME280;40783;49.710;8.842;2022-08-19T06:06:53;98736.28;;;19.21;100.00
52927;BME280;40783;49.710;8.842;2022-08-19T06:09:22;98735.78;;;19.31;100.00
52927;BME280;40783;49.710;8.842;2022-08-19T06:11:51;98748.19;;;19.38;100.00
52927;BME280;40783;49.710;8.842;2022-08-19T06:14:21;98736.00;;;19.48;100.00
52927;BME280;40783;49.710;8.842;2022-08-19T06:16:47;98732.53;;;19.59;100.00
52927;BME280;40783;49.710;8.842;2022-08-19T06:19:14;98748.00;;;19.70;99.75
52927;BME280;40783;49.710;8.842;2022-08-19T06:21:43;98747.09;;;19.77;98.51
52927;BME280;40783;49.710;8.842;2022-08-19T06:24:09;98764.66;;;19.93;97.96
52927;BME280;40783;49.710;8.842;2022-08-19T06:26:38;98757.19;;;20.07;96.95
52927;BME280;40783;49.710;8.842;2022-08-19T06:29:05;98761.09;;;20.11;97.03
52927;BME280;40783;49.710;8.842;2022-08-19T06:31:32;98753.56;;;20.13;96.68
52927;BME280;40783;49.710;8.842;2022-08-19T06:33:58;98757.34;;;20.12;96.21
52927;BME280;40783;49.710;8.842;2022-08-19T06:36:24;98765.13;;;20.20;97.14
52927;BME280;40783;49.710;8.842;2022-08-19T06:39:00;98771.88;;;20.29;95.71
52927;BME280;40783;49.710;8.842;2022-08-19T06:41:28;98784.09;;;20.39;95.51
52927;BME280;40783;49.710;8.842;2022-08-19T06:43:54;98787.16;;;20.42;95.14
52927;BME280;40783;49.710;8.842;2022-08-19T06:46:19;98782.59;;;20.55;94.51
52927;BME280;40783;49.710;8.842;2022-08-19T06:48:47;98781.91;;;20.59;93.72
52927;BME280;40783;49.710;8.842;2022-08-19T06:51:18;98782.72;;;20.72;93.97
52927;BME280;40783;49.710;8.842;2022-08-19T06:53:47;98790.41;;;20.75;95.47
52927;BME280;40783;49.710;8.842;2022-08-19T06:56:16;98793.28;;;20.80;93.79
52927;BME280;40783;49.710;8.842;2022-08-19T06:58:42;98797.31;;;20.89;94.02
52927;BME280;40783;49.710;8.842;2022-08-19T07:01:08;98805.00;;;20.93;92.78
52927;BME280;40783;49.710;8.842;2022-08-19T07:03:34;98800.28;;;21.00;92.17
52927;BME280;40783;49.710;8.842;2022-08-19T07:06:07;98796.75;;;21.11;91.67
52927;BME280;40783;49.710;8.842;2022-08-19T07:08:33;98800.41;;;21.17;91.58
52927;BME280;40783;49.710;8.842;2022-08-19T07:10:58;98794.25;;;21.33;90.90
52927;BME280;40783;49.710;8.842;2022-08-19T07:13:24;98801.22;;;21.41;89.47
52927;BME280;40783;49.710;8.842;2022-08-19T07:15:50;98794.59;;;21.49;89.88
52927;BME280;40783;49.710;8.842;2022-08-19T07:18:17;98795.06;;;21.58;89.59
52927;BME280;40783;49.710;8.842;2022-08-19T07:20:43;98790.84;;;21.62;88.60
52927;BME280;40783;49.710;8.842;2022-08-19T07:23:10;98796.28;;;21.62;87.43
52927;BME280;40783;49.710;8.842;2022-08-19T07:25:38;98792.00;;;21.66;88.35
52927;BME280;40783;49.710;8.842;2022-08-19T07:28:04;98798.22;;;21.78;86.79
52927;BME280;40783;49.710;8.842;2022-08-19T07:30:29;98793.09;;;21.94;86.56
52927;BME280;40783;49.710;8.842;2022-08-19T07:32:55;98783.88;;;21.95;85.96
52927;BME280;40783;49.710;8.842;2022-08-19T07:35:21;98787.44;;;21.84;86.26
52927;BME280;40783;49.710;8.842;2022-08-19T07:37:49;98799.28;;;21.77;87.48
52927;BME280;40783;49.710;8.842;2022-08-19T07:40:20;98791.94;;;21.90;85.88
52927;BME280;40783;49.710;8.842;2022-08-19T07:42:48;98794.06;;;21.88;87.08
52927;BME280;40783;49.710;8.842;2022-08-19T07:45:15;98796.44;;;21.84;86.35
52927;BME280;40783;49.710;8.842;2022-08-19T07:47:41;98790.63;;;21.92;86.36
52927;BME280;40783;49.710;8.842;2022-08-19T07:50:07;98800.50;;;22.11;85.01
52927;BME280;40783;49.710;8.842;2022-08-19T07:52:33;98793.47;;;21.98;85.78
52927;BME280;40783;49.710;8.842;2022-08-19T07:55:03;98788.53;;;22.12;85.70
52927;BME280;40783;49.710;8.842;2022-08-19T07:57:31;98792.81;;;22.07;85.90
52927;BME280;40783;49.710;8.842;2022-08-19T07:59:56;98803.72;;;22.07;85.14
52927;BME280;40783;49.710;8.842;2022-08-19T08:02:24;98810.22;;;22.06;85.81
52927;BME280;40783;49.710;8.842;2022-08-19T08:04:49;98800.88;;;22.02;85.21
52927;BME280;40783;49.710;8.842;2022-08-19T08:07:32;98795.16;;;22.16;84.90
52927;BME280;40783;49.710;8.842;2022-08-19T08:10:16;98795.97;;;22.16;84.86
52927;BME280;40783;49.710;8.842;2022-08-19T08:12:42;98799.16;;;22.25;84.38
52927;BME280;40783;49.710;8.842;2022-08-19T08:15:09;98792.56;;;22.38;83.61
52927;BME280;40783;49.710;8.842;2022-08-19T08:17:35;98795.94;;;22.57;82.25
52927;BME280;40783;49.710;8.842;2022-08-19T08:20:03;98795.75;;;22.81;81.75
52927;BME280;40783;49.710;8.842;2022-08-19T08:22:31;98781.06;;;22.82;80.59
52927;BME280;40783;49.710;8.842;2022-08-19T08:25:17;98789.50;;;22.97;80.24
52927;BME280;40783;49.710;8.842;2022-08-19T08:27:43;98788.09;;;22.95;79.33
52927;BME280;40783;49.710;8.842;2022-08-19T08:30:10;98798.00;;;23.01;78.93
52927;BME280;40783;49.710;8.842;2022-08-19T08:32:36;98794.28;;;22.90;79.46
52927;BME280;40783;49.710;8.842;2022-08-19T08:35:03;98787.34;;;23.00;79.21
52927;BME280;40783;49.710;8.842;2022-08-19T08:37:28;98792.56;;;23.01;79.69
52927;BME280;40783;49.710;8.842;2022-08-19T08:39:54;98790.31;;;23.15;78.36
52927;BME280;40783;49.710;8.842;2022-08-19T08:44:50;98788.84;;;23.24;77.27
52927;BME280;40783;49.710;8.842;2022-08-19T08:47:18;98796.22;;;23.46;75.33
52927;BME280;40783;49.710;8.842;2022-08-19T08:49:48;98788.66;;;23.31;74.97
52927;BME280;40783;49.710;8.842;2022-08-19T08:52:26;98787.84;;;23.31;75.41
52927;BME280;40783;49.710;8.842;2022-08-19T08:54:54;98795.94;;;23.25;75.25
52927;BME280;40783;49.710;8.842;2022-08-19T08:57:26;98803.19;;;23.37;76.12
52927;BME280;40783;49.710;8.842;2022-08-19T08:59:55;98797.22;;;23.40;73.63
52927;BME280;40783;49.710;8.842;2022-08-19T09:02:21;98806.47;;;23.39;73.83
52927;BME280;40783;49.710;8.842;2022-08-19T09:04:47;98812.28;;;23.42;74.16
52927;BME280;40783;49.710;8.842;2022-08-19T09:09:43;98816.25;;;23.35;73.97
52927;BME280;40783;49.710;8.842;2022-08-19T09:14:37;98817.91;;;23.36;73.98
52927;BME280;40783;49.710;8.842;2022-08-19T09:17:09;98816.25;;;23.35;74.42
52927;BME280;40783;49.710;8.842;2022-08-19T09:19:35;98806.63;;;23.49;74.51
52927;BME280;40783;49.710;8.842;2022-08-19T09:22:01;98801.97;;;23.67;75.48
52927;BME280;40783;49.710;8.842;2022-08-19T09:24:26;98798.03;;;24.02;74.09
52927;BME280;40783;49.710;8.842;2022-08-19T09:26:52;98795.94;;;24.09;72.28
52927;BME280;40783;49.710;8.842;2022-08-19T09:29:20;98792.34;;;24.31;73.46
52927;BME280;40783;49.710;8.842;2022-08-19T09:31:45;98793.50;;;24.40;71.60
52927;BME280;40783;49.710;8.842;2022-08-19T09:34:11;98792.47;;;24.47;70.98
52927;BME280;40783;49.710;8.842;2022-08-19T09:36:40;98798.56;;;24.54;70.71
52927;BME280;40783;49.710;8.842;2022-08-19T09:39:05;98792.25;;;24.48;69.08
52927;BME280;40783;49.710;8.842;2022-08-19T09:41:30;98794.13;;;24.48;68.77
52927;BME280;40783;49.710;8.842;2022-08-19T09:43:57;98791.44;;;24.53;71.68
52927;BME280;40783;49.710;8.842;2022-08-19T09:46:24;98796.63;;;24.22;71.18
52927;BME280;40783;49.710;8.842;2022-08-19T09:48:49;98796.28;;;24.45;69.76
52927;BME280;40783;49.710;8.842;2022-08-19T09:51:17;98802.91;;;24.50;68.23
52927;BME280;40783;49.710;8.842;2022-08-19T09:53:43;98797.44;;;24.50;68.12
52927;BME280;40783;49.710;8.842;2022-08-19T09:56:12;98790.03;;;24.72;63.55
52927;BME280;40783;49.710;8.842;2022-08-19T09:58:38;98793.25;;;24.69;65.92
52927;BME280;40783;49.710;8.842;2022-08-19T10:01:03;98796.53;;;24.71;65.41
52927;BME280;40783;49.710;8.842;2022-08-19T10:03:30;98797.59;;;24.98;64.48
52927;BME280;40783;49.710;8.842;2022-08-19T10:05:56;98800.75;;;25.17;65.08
52927;BME280;40783;49.710;8.842;2022-08-19T10:08:24;98798.53;;;25.14;64.75
52927;BME280;40783;49.710;8.842;2022-08-19T10:10:50;98791.38;;;25.08;65.31
52927;BME280;40783;49.710;8.842;2022-08-19T10:13:17;98790.59;;;25.12;65.65
52927;BME280;40783;49.710;8.842;2022-08-19T10:15:46;98786.56;;;25.25;64.38
52927;BME280;40783;49.710;8.842;2022-08-19T10:18:15;98785.78;;;25.35;59.94
52927;BME280;40783;49.710;8.842;2022-08-19T10:20:45;98773.94;;;25.72;62.71
52927;BME280;40783;49.710;8.842;2022-08-19T10:23:13;98783.00;;;25.73;60.63
52927;BME280;40783;49.710;8.842;2022-08-19T10:25:40;98784.19;;;25.92;61.26
52927;BME280;40783;49.710;8.842;2022-08-19T10:28:05;98796.69;;;25.68;59.71
52927;BME280;40783;49.710;8.842;2022-08-19T10:30:31;98782.41;;;25.60;59.40
52927;BME280;40783;49.710;8.842;2022-08-19T10:32:56;98780.03;;;25.31;59.88
52927;BME280;40783;49.710;8.842;2022-08-19T10:35:21;98785.00;;;25.34;59.81
52927;BME280;40783;49.710;8.842;2022-08-19T10:37:47;98781.50;;;25.44;60.25
52927;BME280;40783;49.710;8.842;2022-08-19T10:40:14;98782.34;;;25.50;59.05
52927;BME280;40783;49.710;8.842;2022-08-19T10:42:42;98776.88;;;25.50;57.76
52927;BME280;40783;49.710;8.842;2022-08-19T10:45:09;98785.59;;;25.42;59.91
52927;BME280;40783;49.710;8.842;2022-08-19T10:47:35;98779.50;;;25.34;59.96
52927;BME280;40783;49.710;8.842;2022-08-19T10:50:00;98771.59;;;25.38;60.37
52927;BME280;40783;49.710;8.842;2022-08-19T10:52:52;98766.97;;;25.44;59.88
52927;BME280;40783;49.710;8.842;2022-08-19T10:55:18;98770.78;;;25.38;58.40
52927;BME280;40783;49.710;8.842;2022-08-19T10:58:03;98762.59;;;25.43;60.63
52927;BME280;40783;49.710;8.842;2022-08-19T11:00:28;98760.38;;;25.40;61.25
52927;BME280;40783;49.710;8.842;2022-08-19T11:02:55;98759.50;;;25.29;58.76
52927;BME280;40783;49.710;8.842;2022-08-19T11:05:21;98742.19;;;25.18;60.05
52927;BME280;40783;49.710;8.842;2022-08-19T11:07:48;98732.84;;;25.09;58.48
52927;BME280;40783;49.710;8.842;2022-08-19T11:10:16;98726.78;;;25.01;59.72
52927;BME280;40783;49.710;8.842;2022-08-19T11:12:46;98729.44;;;24.91;59.45
52927;BME280;40783;49.710;8.842;2022-08-19T11:15:12;98733.97;;;25.13;61.42
52927;BME280;40783;49.710;8.842;2022-08-19T11:17:37;98739.03;;;25.37;59.19
52927;BME280;40783;49.710;8.842;2022-08-19T11:20:05;98738.78;;;25.43;59.35
52927;BME280;40783;49.710;8.842;2022-08-19T11:22:31;98748.97;;;25.53;58.76
52927;BME280;40783;49.710;8.842;2022-08-19T11:24:56;98749.91;;;25.26;58.95
52927;BME280;40783;49.710;8.842;2022-08-19T11:27:24;98748.81;;;25.27;59.18
52927;BME280;40783;49.710;8.842;2022-08-19T11:29:49;98741.97;;;25.30;61.68
52927;BME280;40783;49.710;8.842;2022-08-19T11:32:14;98726.97;;;25.32;61.66
52927;BME280;40783;49.710;8.842;2022-08-19T11:34:42;98728.09;;;25.42;60.46
52927;BME280;40783;49.710;8.842;2022-08-19T11:37:10;98732.59;;;25.63;60.83
52927;BME280;40783;49.710;8.842;2022-08-19T11:39:38;98733.78;;;25.88;61.14
52927;BME280;40783;49.710;8.842;2022-08-19T11:42:04;98725.00;;;25.86;57.88
52927;BME280;40783;49.710;8.842;2022-08-19T11:44:50;98721.72;;;25.89;59.09
52927;BME280;40783;49.710;8.842;2022-08-19T11:47:15;98727.75;;;26.02;59.00
52927;BME280;40783;49.710;8.842;2022-08-19T11:49:41;98720.41;;;26.23;57.27
52927;BME280;40783;49.710;8.842;2022-08-19T11:52:07;98720.97;;;26.35;53.52
52927;BME280;40783;49.710;8.842;2022-08-19T11:54:32;98717.94;;;26.16;52.50
52927;BME280;40783;49.710;8.842;2022-08-19T11:56:58;98721.78;;;26.15;51.36
52927;BME280;40783;49.710;8.842;2022-08-19T11:59:23;98723.91;;;25.98;52.74
52927;BME280;40783;49.710;8.842;2022-08-19T12:01:48;98711.84;;;25.83;53.60
52927;BME280;40783;49.710;8.842;2022-08-19T12:04:14;98709.66;;;26.01;55.12
52927;BME280;40783;49.710;8.842;2022-08-19T12:06:39;98701.50;;;26.16;53.49
52927;BME280;40783;49.710;8.842;2022-08-19T12:09:05;98705.34;;;26.15;52.03
52927;BME280;40783;49.710;8.842;2022-08-19T12:11:32;98703.72;;;26.35;51.89
52927;BME280;40783;49.710;8.842;2022-08-19T12:13:57;98703.72;;;26.25;52.15
52927;BME280;40783;49.710;8.842;2022-08-19T12:16:24;98702.63;;;26.20;53.81
52927;BME280;40783;49.710;8.842;2022-08-19T12:18:50;98697.69;;;26.28;52.04
52927;BME280;40783;49.710;8.842;2022-08-19T12:21:19;98698.22;;;26.50;54.56
52927;BME280;40783;49.710;8.842;2022-08-19T12:23:46;98705.34;;;26.67;53.51
52927;BME280;40783;49.710;8.842;2022-08-19T12:26:15;98693.28;;;26.94;51.02
52927;BME280;40783;49.710;8.842;2022-08-19T12:28:44;98699.03;;;26.92;51.44
52927;BME280;40783;49.710;8.842;2022-08-19T12:31:10;98709.75;;;26.84;46.95
52927;BME280;40783;49.710;8.842;2022-08-19T12:33:37;98699.88;;;26.98;51.11
52927;BME280;40783;49.710;8.842;2022-08-19T12:36:03;98701.44;;;27.09;48.80
52927;BME280;40783;49.710;8.842;2022-08-19T12:38:31;98711.34;;;27.10;49.61
52927;BME280;40783;49.710;8.842;2022-08-19T12:40:57;98708.09;;;26.93;47.06
52927;BME280;40783;49.710;8.842;2022-08-19T12:43:25;98704.78;;;26.80;48.56
52927;BME280;40783;49.710;8.842;2022-08-19T12:45:50;98704.25;;;26.73;49.34
52927;BME280;40783;49.710;8.842;2022-08-19T12:48:18;98702.34;;;26.74;50.93
52927;BME280;40783;49.710;8.842;2022-08-19T12:50:44;98698.75;;;26.99;52.05
52927;BME280;40783;49.710;8.842;2022-08-19T12:53:12;98691.59;;;27.03;49.40
52927;BME280;40783;49.710;8.842;2022-08-19T12:55:38;98695.47;;;27.02;48.11
52927;BME280;40783;49.710;8.842;2022-08-19T12:58:06;98701.44;;;27.15;49.11
52927;BME280;40783;49.710;8.842;2022-08-19T13:00:33;98696.50;;;27.11;47.42
52927;BME280;40783;49.710;8.842;2022-08-19T13:02:59;98706.91;;;27.20;47.91
52927;BME280;40783;49.710;8.842;2022-08-19T13:05:26;98712.09;;;27.32;46.46